Classifica generale Circuito Ecomaratone Italia 2017
PosAtletaTempoTotaleNumGareSexSahara Marathon
28/02/2017
Ecomaratona del Collio-Brda 2017
23/04/2017
Ecomaratona dei Marsi
07/05/2017
Ecomaratona delle Madonie
28/05/2017
Ecomaratona del Chianti
15/10/2017
Valtellina Wine Trail
04/11/2017
Nota
1MENEGARDI MARCO0d 03:19:241M03:19:24
2CUDIN IVAN0d 03:19:241M03:19:24
3MASSARENTI PAOLO0d 03:24:161M03:24:16
4MORETTON ANDREA0d 03:29:461M03:29:46
5ZUFFERLI IVAN0d 03:32:051M03:32:05
6VISINTINI MARCO0d 03:34:051M03:34:05
7DI SANTE DONATELLO0d 03:35:031M03:35:03
8FURLAN ALBERTO0d 03:37:101M03:37:10
9ULIANA MASSIMILIANO0d 03:42:041M03:42:04
10ZUODAR GIANNI0d 03:46:581M03:46:58
11LIBERATORE LUIGI0d 03:49:421M03:49:42
12MARTIN ORIANO0d 03:52:061M03:52:06
13ZANATTA ANDREA0d 03:57:071M03:57:07
1KRKOC LUCIJA0d 04:00:371F04:00:37
14FICORILLI DIEGO0d 04:01:121M04:01:12
15BONORA MATTEO0d 04:03:541M04:03:54
16MICHELANI GIAMPIERO0d 04:04:491M04:04:49
17LISCIANI GABRIELE0d 04:06:491M04:06:49
18ADAMI GIANNI0d 04:07:561M04:07:56
19BARBUSCIO GUIDO0d 04:08:541M04:08:54
20PICCININI LUCA0d 04:08:591M04:08:59
21CIMOLINO DARIO0d 04:09:031M04:09:03
22MATTEAZZI MARCO 0d 04:12:101M04:12:10
23VIEZZI MANUEL0d 04:12:131M04:12:13
24SZOLIL MICHELE0d 04:12:361M04:12:36
25ROMANELLI IVO0d 04:16:221M04:16:22
26DAL COL MARCO0d 04:16:341M04:16:34
27TASSAN MATTEO0d 04:16:471M04:16:47
28MARZOLI MAURIZIO0d 04:17:351M04:17:35
29MANI AJET0d 04:18:151M04:18:15
30MOLTENI STEFANO0d 04:18:261M04:18:26
31SERRA PATRIZIO0d 04:18:271M04:18:27
2PIZZINO MARIA 0d 04:20:441F04:20:44
32SARRI ROBERTO0d 04:20:441M04:20:44
33BENTIVOGLIO ENZO0d 04:21:011M04:21:01
34ORLANDO STEEVE0d 04:21:041M04:21:04
35FELCARO ALIDO0d 04:21:581M04:21:58
36MARCHIORI LORENZO 0d 04:22:091M04:22:09
37AVOLEDO ALESSANDRO0d 04:23:151M04:23:15
38PELLIZZON MAURO0d 04:26:121M04:26:12
3NOACCO ASIA0d 04:26:521F04:26:52
4VIANELLO VALENTINA0d 04:26:541F04:26:54
39CONARDI DAVIDE0d 04:27:221M04:27:22
40BUCCIOL MARCO0d 04:27:221M04:27:22
41BATTOCCHIO ROBERTO0d 04:27:321M04:27:32
42BASSO MAURO0d 04:27:361M04:27:36
43GELONESE MASSIMILIANO 0d 04:27:491M04:27:49
44DI SANTE LINO0d 04:28:071M04:28:07
45MENEGATTI MAURO0d 04:29:281M04:29:28
46VICARIO MICHELE0d 04:29:331M04:29:33
47BARONE GIANNI0d 04:29:481M04:29:48
48MARESCHI TIZIANO0d 04:30:051M04:30:05
49VENIER MARCO0d 04:31:201M04:31:20
5LAVARINI SARA0d 04:31:431F04:31:43
6LEDERER KATJA0d 04:31:551F04:31:55
50SZNOPEK JÓZSEF0d 04:32:061M04:32:06
51DI STEFANO DINO0d 04:32:121M04:32:12
52TOSI ANDREA0d 04:32:151M04:32:15
53SFILIGOI BORIS0d 04:32:271M04:32:27
54DELLA ROVERE LUIGI0d 04:33:011M04:33:01
7DI BIASE MARINA0d 04:34:081F04:34:08
8ELLERO SABRINA0d 04:37:321F04:37:32
55VENIER GIULIANO0d 04:38:131M04:38:13
56PILLER GIORGIO0d 04:38:551M04:38:55
57TIRELLI DENIS0d 04:39:441M04:39:44
58VITALE LUCIANO0d 04:40:361M04:40:36
59SCATTO ALBERTO0d 04:41:101M04:41:10
60DONDA EMANUELE0d 04:41:251M04:41:25
61MICHIELOTTO DARIO0d 04:41:251M04:41:25
9VOLPATO MARTINA0d 04:41:331F04:41:33
62MORETTIN SIMONE0d 04:41:511M04:41:51
63DI CLAUDIO DAVIDE0d 04:41:511M04:41:51
10DALLA TORRE ITALIA0d 04:42:341F04:42:34
11DRIUSSO STEFANO0d 04:42:341F04:42:34
12AZZOLINI ANNARITA0d 04:43:071F04:43:07
64BORTOLUSSI SIMONE0d 04:44:421M04:44:42
65BERALDO GIORGIO0d 04:45:131M04:45:13
66GIGANTE ANDREA0d 04:46:121M04:46:12
67MORO PATRIK0d 04:46:431M04:46:43
68BELVISO MARIANO0d 04:47:011M04:47:01
69URBANI LUCA0d 04:48:401M04:48:40
70PISCHIUTTA PAOLO0d 04:49:121M04:49:12
71PICCOLI MARCO LEUCIO0d 04:49:581M04:49:58
72ALESSANDRINI MAURIZIO0d 04:49:581M04:49:58
73TOFFOLO ANDREA0d 04:50:571M04:50:57
74DA DALT IVAN0d 04:51:351M04:51:35
75GRADUATO FRANCESCO0d 04:51:471M04:51:47
76FRANCO COSIMO0d 04:53:351M04:53:35
77PAOLUCCI NICOLA0d 04:54:251M04:54:25
13CREMONINI TOMMASO0d 04:54:381F04:54:38
78DRUZINA DANIEL0d 04:54:381M04:54:38
79BORELLA SANTO0d 04:55:061M04:55:06
80DI MATTEO FILOTEO0d 04:55:221M04:55:22
14ANNOVI AGNESE0d 04:55:281F04:55:28
81PATRONCINO ANDREA0d 04:55:381M04:55:38
82D'ANDREA SANDRO0d 04:56:301M04:56:30
83ONELLI AUGUSTO0d 04:56:301M04:56:30
84CASAGRANDE GIACOMO0d 04:56:531M04:56:53
85CONTARDO PAOLO0d 04:57:361M04:57:36
86MARCONI MASSIMO0d 04:57:511M04:57:51
87DI NORO NICOLA0d 04:57:571M04:57:57
88CAPONNETTO FILIPPO0d 04:58:211M04:58:21
89GORI STEFANO0d 04:58:221M04:58:22
90GUERRA LORIS0d 04:58:221M04:58:22
91BLANDINI PAOLO ANGELO MARIA0d 04:58:281M04:58:28
92CLEVA FRANK0d 04:58:321M04:58:32
93PAVANELLO FLAVIO0d 04:59:041M04:59:04
94DE ROSA LUCA0d 04:59:131M04:59:13
95GRIPPARI GIANNI0d 05:00:211M05:00:21
96MORASSUTTI DANIELE0d 05:00:591M05:00:59
97LEITA ANDREA0d 05:01:001M05:01:00
15MICHELIZZA TIZIANA0d 05:01:061F05:01:06
98FORNER ENZO0d 05:01:081M05:01:08
99CAVASINNI LINO0d 05:01:401M05:01:40
100ANDREATTA ROBERTO0d 05:01:481M05:01:48
101SALTARINI MASSIMILIANO0d 05:02:171M05:02:17
102FURLAN ROBERTO0d 05:02:181M05:02:18
103BOSA MAURIZIO0d 05:03:011M05:03:01
16MULLONI GIOVANNA0d 05:03:011F05:03:01
104GUARINO RICCARDO0d 05:04:591M05:04:59
105SCATTOLINI MATTEO0d 05:05:311M05:05:31
106STORNELLI MASSIMILIANO0d 05:05:461M05:05:46
107LUIS DANIELE0d 05:06:101M05:06:10
108MAGRĚ PIERO0d 05:07:151M05:07:15
109CILINO ARMANDO0d 05:07:221M05:07:22
110CROGNALE DONATO0d 05:07:241M05:07:24
17MARUSIC SILVANA0d 05:07:271F05:07:27
111GIANFRANCESCO ANTONIO0d 05:07:291M05:07:29
112PIRISI MARCO0d 05:07:451M05:07:45
113KRAMAR BOJAN0d 05:08:181M05:08:18
114TUDOROV GIORGIO0d 05:08:431M05:08:43
115RUSALEN MARIO0d 05:09:101M05:09:10
116MERONI GIULIO0d 05:09:461M05:09:46
117VENTURUZZO MARCO0d 05:11:101M05:11:10
118FERESIN ROBERTO0d 05:12:081M05:12:08
119PRESSI IVAN0d 05:12:341M05:12:34
120TODESCO FIORENZO 0d 05:12:351M05:12:35
121DE ROSA CHRISTIAN0d 05:13:061M05:13:06
122ERMACORA MARCO0d 05:13:181M05:13:18
18BELLINA ESTER0d 05:13:181F05:13:18
123SCAPINELLO SERGIO0d 05:13:291M05:13:29
124PIETRANTONI DOMENICO0d 05:15:161M05:15:16
125QUAGLIERI LUCIO0d 05:16:051M05:16:05
126CAVALLO ROSARIO0d 05:16:131M05:16:13
127FILIPUZZI ROBERTO0d 05:16:341M05:16:34
128LONDERO DANIEL0d 05:16:591M05:16:59
129PECILE GIULIO0d 05:18:141M05:18:14
19FLOREANI ELENA CRISTINA0d 05:18:161F05:18:16
130DI BARTOLOMEO DONATELLO0d 05:18:551M05:18:55
131BARADELLO LUCA0d 05:18:561M05:18:56
132MART MAR0d 05:19:171M05:19:17
133CICCARESE DANILO0d 05:20:011M05:20:01
20CARRARO VIVIANA0d 05:20:111F05:20:11
21PAPONETTI CESIRA0d 05:20:201F05:20:20
134DAMIANI MASSIMILIANO0d 05:20:361M05:20:36
135SEVERINI DANIELE0d 05:20:391M05:20:39
136ANDREATTI MAURIZIO0d 05:21:071M05:21:07
137MARSON PAOLO0d 05:21:151M05:21:15
22CAROBOLANTE SILVIA0d 05:21:531F05:21:53
23MARTIN ARIANA0d 05:23:181F05:23:18
138CERRETANI GUERINO0d 05:23:221M05:23:22
139PERESSINI SANDRO0d 05:24:051M05:24:05
140MARANZAN GIANFRANCO0d 05:24:521M05:24:52
24BURANELLO DANIELA0d 05:25:041F05:25:04
141GATTO ROBERTO0d 05:26:031M05:26:03
142TASSANI VALTER0d 05:26:051M05:26:05
143TUFANO GENNARO0d 05:26:491M05:26:49
144BOCCIARELLI PAOLO0d 05:27:031M05:27:03
25RECCHIA CLAUDIA0d 05:27:061F05:27:06
26MODOLO SIMONA0d 05:27:101F05:27:10
145CANDOTTI MARCO0d 05:28:011M05:28:01
146PLAINO ALESSANDRO0d 05:28:471M05:28:47
147RAMPOLDI BATTISTA GIOVANNI0d 05:28:531M05:28:53
148TRICARICO MARINO0d 05:28:531M05:28:53
149PERIN LUCIANO0d 05:29:001M05:29:00
150ERAMO HERMES0d 05:29:241M05:29:24
151MARZARO FILIPPO0d 05:29:311M05:29:31
27NAN TATIANA0d 05:29:311F05:29:31
152RONCAGLIA MAURO0d 05:29:491M05:29:49
153CRUCIANELLI GIAMPIETRO0d 05:30:321M05:30:32
154BORTOLIN AGOSTINO0d 05:30:321M05:30:32
155CANTARUTTI ALESSANDRO0d 05:31:251M05:31:25
156FAVARO FRANCESCO0d 05:31:271M05:31:27
28PIZZOLATO MARIAVITTORIA0d 05:31:411F05:31:41
29LOCATELLI LORETTA0d 05:31:471F05:31:47
157BEVILACQUA WALTER0d 05:32:181M05:32:18
158CATALANI AUGUSTO0d 05:32:431M05:32:43
159CROATTINI LORENZO0d 05:32:521M05:32:52
160GAETANI FRANCESCO0d 05:33:441M05:33:44
161LOVERRO VINCENZO0d 05:33:441M05:33:44
162SCARCELLA VINCENZO0d 05:34:001M05:34:00
163QUADRELLI VINCENZO0d 05:34:251M05:34:25
164CAMPELLI ITALO0d 05:34:281M05:34:28
30GASPARI SIMONA0d 05:34:531F05:34:53
165CAROSI GIUSEPPE0d 05:34:531M05:34:53
31ALFONSI LUCIA0d 05:34:531F05:34:53
166MARINI MARCO0d 05:34:531M05:34:53
167BROSOLO PASCAL0d 05:35:061M05:35:06
168DEL TRESTE GAETANO0d 05:35:081M05:35:08
169LAZZAROTTO ANDREA0d 05:35:431M05:35:43
170DIJUST M0d 05:35:561M05:35:56
32MACOR CRISTIANA0d 05:36:271F05:36:27
171PARPINEL PIERLUIGI0d 05:38:381M05:38:38
172DI MOLFETTA PASQUALE0d 05:39:151M05:39:15
173PUNTIL ERMES0d 05:41:141M05:41:14
174CARADONNA ROCCO0d 05:41:311M05:41:31
33VIOTTI ANNARITA0d 05:42:341F05:42:34
175COMINI ANDREA0d 05:42:431M05:42:43
34CONTIN GRAZIA0d 05:43:391F05:43:39
176BUREAU LIONEL0d 05:43:401M05:43:40
177VIGANO EMILIO0d 05:43:531M05:43:53
35VESCOVI ELENA0d 05:45:011F05:45:01
36GENOVESE MERI0d 05:45:031F05:45:03
178BALZANO ANTONINO0d 05:45:031M05:45:03
179SEDRAN RODOLFO0d 05:45:301M05:45:30
180TOTIS ENRICO0d 05:46:441M05:46:44
181PONZIANI FABIO0d 05:46:571M05:46:57
37GILLANT MICHEL0d 05:47:021F05:47:02
38TIBERIO ROMINA0d 05:47:101F05:47:10
182ZAMARO PAOLO0d 05:47:331M05:47:33
39FRANZONE GIUSEPPINA0d 05:48:201F05:48:20
40FURIAN TERESINA0d 05:48:561F05:48:56
183PETRUCCI CRISTIAN0d 05:49:211M05:49:21
41FELICIJAN ANA0d 05:49:551F05:49:55
42MENCIN MATEJA0d 05:49:551F05:49:55
184BISARO RENATO0d 05:50:101M05:50:10
185SANDRI FRANCESCO0d 05:50:111M05:50:11
186FABRETTI LUCIANO0d 05:50:131M05:50:13
43BONFANTI IVANA0d 05:52:061F05:52:06
187BORTOLUSSI MICHELE0d 05:52:111M05:52:11
188RANALLO MARCO0d 05:52:131M05:52:13
189COSTANTINI LORENZO0d 05:52:431M05:52:43
190CORRADIN FABIO0d 05:52:431M05:52:43
191RIZZUTO VITTORIO0d 05:54:051M05:54:05
192MERONI CARLO0d 05:54:051M05:54:05
193BASIACO ALBERTO0d 05:54:051M05:54:05
194PIVIDORI DANIELE0d 05:54:311M05:54:31
195PELLI LANDO0d 05:56:141M05:56:14
196BALBONI PAOLO0d 05:57:181M05:57:18
197MICHIELAZZO VANNILEO0d 05:57:191M05:57:19
198MAHAPATRA MANAS RANJAN0d 05:57:561M05:57:56
199ELLERO ANDREA0d 05:58:051M05:58:05
200MORETTIN VALERIO0d 05:58:301M05:58:30
201DE ZOTTI GIORGIO0d 05:58:411M05:58:41
202CONTINO BIAGIO0d 05:58:421M05:58:42
203MIANI CESARE0d 05:58:521M05:58:52
204TROILO ANGELO0d 05:59:341M05:59:34
205MODOLO GIANPAOLO0d 05:59:381M05:59:38
44TRAMONTIN GIUSEPPE0d 06:00:241F06:00:24
45CANFARELLI GIOVANNA0d 06:01:591F06:01:59
206SCARANTE MAURO0d 06:02:011M06:02:01
46KODRIč DAŠA0d 06:02:021F06:02:02
207CADEL MASSIMO0d 06:03:121M06:03:12
208PASINI LORENZO0d 06:04:031M06:04:03
209GHILINO ANTONIO0d 06:04:221M06:04:22
47BERTOIA BARBARA0d 06:08:231F06:08:23
210DE COLLE FRANCO0d 06:08:231M06:08:23
211TORNESE DIEGO0d 06:10:131M06:10:13
212LUCENTE LUCA MARIA0d 06:10:131M06:10:13
213GUIDOLIN ROBERTO0d 06:11:251M06:11:25
214FORNITI TERENZIO0d 06:12:531M06:12:53
48VISTARINI MARIA AUSILIA0d 06:13:131F06:13:13
49COLANGELO ELVEZIA0d 06:13:561F06:13:56
215BARILE ANTONIO0d 06:15:161M06:15:16
50CIARLA ALBERTA0d 06:15:201F06:15:20
216MAGARIELLI ANTONIO0d 06:16:031M06:16:03
217SETTEVENDEMMIE GAETANO0d 06:16:391M06:16:39
218CAVALAGLI CLAUDIO0d 06:16:451M06:16:45
51CARLET TANIA0d 06:17:011F06:17:01
219SPONTON GIUSEPPE0d 06:19:131M06:19:13
220CORAZZA ANTONINO0d 06:20:011M06:20:01
221BARBIERO MICHELE0d 06:20:131M06:20:13
52RONDI VALENTINA0d 06:20:411F06:20:41
222VASCOTTO ROBERTO0d 06:20:411M06:20:41
53PICCININI URSULA0d 06:20:431F06:20:43
223FEOLA ANTONIO0d 06:21:551M06:21:55
224LONIGRO ENRICO0d 06:23:461M06:23:46
225ROTA CANDIANO0d 06:25:141M06:25:14
226NONINI GIORGIO0d 06:26:451M06:26:45
227MONACELLI GARGARO FRANCESCO0d 06:31:051M06:31:05
228MICHETTI CARLO0d 06:31:061M06:31:06
229CIAFRELLI FABIO0d 06:31:081M06:31:08
230INFUSI CLAUDIO0d 06:31:481M06:31:48
231SALVADOR MARZIO0d 06:34:571M06:34:57
232CESARIO LUDOVICO0d 06:36:211M06:36:21
233FAVARO SEBASTIANO0d 06:38:401M06:38:40
234STEFFAN ODINO0d 06:43:241M06:43:24
235CILIA GIOVANNI0d 06:43:381M06:43:38
236ONOFRILLO PASQUALINO0d 06:44:141M06:44:14
237ZARA FABIO0d 06:44:141M06:44:14
54SORIANI SILVIA0d 06:44:271F06:44:27
55DUPRE BARBARA0d 06:49:021F06:49:02
56LAZZARO DANIELA0d 06:49:031F06:49:03
238GERIN GIANPAOLO0d 06:52:271M06:52:27
239MENOTTI MICHELE0d 06:52:281M06:52:28
57ALBI NEVA0d 07:03:331F07:03:33
240PENNACCHI MARCELLO0d 07:15:161M07:15:16
58GALASSO LIANA0d 07:17:131F07:17:13
241ONORATI ALDO0d 07:17:131M07:17:13
242FAVRO GIORGIO0d 07:19:251M07:19:25
59MANNA ANNA MARIA0d 07:24:211F07:24:21
243TOFFOLI STEFANO0d 07:26:241M07:26:24
244CASSAN STEFANO0d 07:26:261M07:26:26
245NOVELLO MORIS0d 07:45:161M07:45:16
60BELMONTE CRISTINA0d 07:56:181F07:56:18
61TRANQUILLI GIOVANNA0d 07:56:201F07:56:20
246MOLENA SILVERIO0d 08:05:521M08:05:52
247DI GREGORIO ENRICO0d 08:13:161M08:13:16
248DI PASTENA VINCENZO0d 08:13:171M08:13:17